createdAt,value
2022-09-17T00:01:41.354Z,0.60
2022-09-17T00:04:11.020Z,0.40
2022-09-17T00:06:38.784Z,0.60
2022-09-17T00:09:06.772Z,0.63
2022-09-17T00:11:35.969Z,0.60
2022-09-17T00:14:04.104Z,0.60
2022-09-17T00:16:33.350Z,0.60
2022-09-17T00:19:01.290Z,0.67
2022-09-17T00:21:30.368Z,0.70
2022-09-17T00:23:58.760Z,0.70
2022-09-17T00:26:26.611Z,0.88
2022-09-17T00:28:54.652Z,0.70
2022-09-17T00:31:22.678Z,0.65
2022-09-17T00:33:50.402Z,0.80
2022-09-17T00:36:18.319Z,0.60
2022-09-17T00:38:49.267Z,0.40
2022-09-17T00:41:17.132Z,0.93
2022-09-17T00:43:46.641Z,0.70
2022-09-17T00:46:24.083Z,0.70
2022-09-17T00:48:52.514Z,0.70
2022-09-17T00:51:22.624Z,0.90
2022-09-17T00:56:21.187Z,0.77
2022-09-17T00:58:49.532Z,0.85
2022-09-17T01:01:17.262Z,0.90
2022-09-17T01:03:44.979Z,0.70
2022-09-17T01:06:17.265Z,0.98
2022-09-17T01:08:53.091Z,0.90
2022-09-17T01:11:30.318Z,0.90
2022-09-17T01:14:04.297Z,0.80
2022-09-17T01:16:35.703Z,1.10
2022-09-17T01:19:12.723Z,0.90
2022-09-17T01:21:46.503Z,0.88
2022-09-17T01:24:28.895Z,1.10
2022-09-17T01:27:10.988Z,1.10
2022-09-17T01:29:49.305Z,1.13
2022-09-17T01:32:20.271Z,1.10
2022-09-17T01:34:52.468Z,1.10
2022-09-17T01:37:21.264Z,1.08
2022-09-17T01:39:51.395Z,0.90
2022-09-17T01:44:51.939Z,0.80
2022-09-17T01:47:22.747Z,1.13
2022-09-17T01:49:51.366Z,1.00
2022-09-17T01:52:19.187Z,1.20
2022-09-17T01:54:49.242Z,1.10
2022-09-17T01:59:47.054Z,1.45
2022-09-17T02:02:15.816Z,1.30
2022-09-17T02:04:46.247Z,1.38
2022-09-17T02:07:16.158Z,1.33
2022-09-17T02:09:45.375Z,1.10
2022-09-17T02:12:14.575Z,1.97
2022-09-17T02:14:44.731Z,1.20
2022-09-17T02:19:44.296Z,1.42
2022-09-17T02:22:16.336Z,1.60
2022-09-17T02:24:46.109Z,1.70
2022-09-17T02:27:18.607Z,1.25
2022-09-17T02:29:46.309Z,1.40
2022-09-17T02:32:14.109Z,1.25
2022-09-17T02:34:42.058Z,1.20
2022-09-17T02:37:11.079Z,1.50
2022-09-17T02:39:38.822Z,1.60
2022-09-17T02:42:09.913Z,1.50
2022-09-17T02:44:41.903Z,1.40
2022-09-17T02:47:30.186Z,1.35
2022-09-17T02:50:07.847Z,1.67
2022-09-17T02:52:44.578Z,1.65
2022-09-17T02:55:14.670Z,1.45
2022-09-17T03:00:13.571Z,1.42
2022-09-17T03:02:43.383Z,1.55
2022-09-17T03:05:11.088Z,1.50
2022-09-17T03:07:40.177Z,1.70
2022-09-17T03:10:08.469Z,1.63
2022-09-17T03:12:36.192Z,1.40
2022-09-17T03:15:03.915Z,1.60
2022-09-17T03:17:31.605Z,1.13
2022-09-17T03:19:59.246Z,1.92
2022-09-17T03:22:26.939Z,1.85
2022-09-17T03:24:56.304Z,1.77
2022-09-17T03:27:23.983Z,1.50
2022-09-17T03:29:51.652Z,1.60
2022-09-17T03:32:19.348Z,1.80
2022-09-17T03:34:47.150Z,1.42
2022-09-17T03:37:14.843Z,1.75
2022-09-17T03:39:42.515Z,1.77
2022-09-17T03:42:11.516Z,1.77
2022-09-17T03:44:42.419Z,2.33
2022-09-17T03:47:13.463Z,1.92
2022-09-17T03:49:41.161Z,1.83
2022-09-17T03:52:08.833Z,1.80
2022-09-17T03:54:36.544Z,1.80
2022-09-17T03:57:04.310Z,1.73
2022-09-17T03:59:33.321Z,1.75
2022-09-17T04:02:01.072Z,1.77
2022-09-17T04:04:28.791Z,2.03
2022-09-17T04:06:56.468Z,2.05
2022-09-17T04:09:24.177Z,2.30
2022-09-17T04:11:51.841Z,1.70
2022-09-17T04:14:19.524Z,1.88
2022-09-17T04:16:48.527Z,1.95
2022-09-17T04:19:16.223Z,1.73
2022-09-17T04:21:43.888Z,2.00
2022-09-17T04:24:11.620Z,1.95
2022-09-17T04:26:39.322Z,2.15
2022-09-17T04:29:07.164Z,1.92
2022-09-17T04:31:34.927Z,2.17
2022-09-17T04:34:04.064Z,2.15
2022-09-17T04:36:31.739Z,2.10
2022-09-17T04:38:59.430Z,2.25
2022-09-17T04:41:27.124Z,2.45
2022-09-17T04:43:54.825Z,1.83
2022-09-17T04:46:22.579Z,2.30
2022-09-17T04:48:50.278Z,2.05
2022-09-17T04:51:19.300Z,2.00
2022-09-17T04:53:47.003Z,2.03
2022-09-17T04:56:14.703Z,2.33
2022-09-17T04:58:42.715Z,1.90
2022-09-17T05:01:10.457Z,2.22
2022-09-17T05:03:38.174Z,2.60
2022-09-17T05:06:06.197Z,1.73
2022-09-17T05:08:35.221Z,2.05
2022-09-17T05:11:02.918Z,1.98
2022-09-17T05:13:30.616Z,1.92
2022-09-17T05:15:58.301Z,2.25
2022-09-17T05:18:26.297Z,2.28
2022-09-17T05:20:53.958Z,2.00
2022-09-17T05:23:21.837Z,1.98
2022-09-17T05:25:50.864Z,2.35
2022-09-17T05:28:18.568Z,1.60
2022-09-17T05:30:46.249Z,1.85
2022-09-17T05:33:13.945Z,2.03
2022-09-17T05:35:43.552Z,2.05
2022-09-17T05:38:11.397Z,1.60
2022-09-17T05:40:39.342Z,2.03
2022-09-17T05:43:08.392Z,2.60
2022-09-17T05:45:36.191Z,2.70
2022-09-17T05:48:04.499Z,2.13
2022-09-17T05:50:32.277Z,2.00
2022-09-17T05:53:04.811Z,1.63
2022-09-17T05:55:32.639Z,2.10
2022-09-17T05:58:00.372Z,1.85
2022-09-17T06:00:29.913Z,1.98
2022-09-17T06:02:57.918Z,2.35
2022-09-17T06:05:25.714Z,1.98
2022-09-17T06:07:53.426Z,2.00
2022-09-17T06:10:21.107Z,1.80
2022-09-17T06:12:48.863Z,2.15
2022-09-17T06:15:16.626Z,1.92
2022-09-17T06:17:45.686Z,2.10
2022-09-17T06:20:13.343Z,2.40
2022-09-17T06:22:41.010Z,2.30
2022-09-17T06:25:09.254Z,2.00
2022-09-17T06:27:36.952Z,2.00
2022-09-17T06:30:05.083Z,1.85
2022-09-17T06:32:33.393Z,1.95
2022-09-17T06:35:02.854Z,1.92
2022-09-17T06:37:30.673Z,2.10
2022-09-17T06:39:59.182Z,2.30
2022-09-17T06:42:26.931Z,2.10
2022-09-17T06:44:54.615Z,2.17
2022-09-17T06:47:22.292Z,1.70
2022-09-17T06:49:49.968Z,2.15
2022-09-17T06:52:18.975Z,2.08
2022-09-17T06:54:46.702Z,1.88
2022-09-17T06:57:14.353Z,1.98
2022-09-17T06:59:43.011Z,2.13
2022-09-17T07:02:10.726Z,2.72
2022-09-17T07:04:38.502Z,1.88
2022-09-17T07:07:06.705Z,1.90
2022-09-17T07:09:35.839Z,1.60
2022-09-17T07:12:03.618Z,2.00
2022-09-17T07:14:31.304Z,1.70
2022-09-17T07:16:59.952Z,2.20
2022-09-17T07:19:27.655Z,1.80
2022-09-17T07:21:55.322Z,2.20
2022-09-17T07:24:23.040Z,2.13
2022-09-17T07:26:52.260Z,1.48
2022-09-17T07:29:21.382Z,2.00
2022-09-17T07:31:49.088Z,2.00
2022-09-17T07:34:16.819Z,2.05
2022-09-17T07:36:44.683Z,1.70
2022-09-17T07:39:13.338Z,2.00
2022-09-17T07:41:41.053Z,2.00
2022-09-17T07:44:10.134Z,2.00
2022-09-17T07:46:37.820Z,2.00
2022-09-17T07:49:05.524Z,2.10
2022-09-17T07:51:33.232Z,1.77
2022-09-17T07:54:02.358Z,2.33
2022-09-17T07:56:30.163Z,2.23
2022-09-17T07:58:57.877Z,2.03
2022-09-17T08:01:27.368Z,1.85
2022-09-17T08:03:55.295Z,1.90
2022-09-17T08:06:25.786Z,2.03
2022-09-17T08:08:53.463Z,1.92
2022-09-17T08:14:11.068Z,2.30
2022-09-17T08:16:40.085Z,1.98
2022-09-17T08:19:09.146Z,2.13
2022-09-17T08:21:36.880Z,2.20
2022-09-17T08:24:04.868Z,2.00
2022-09-17T08:26:32.706Z,2.17
2022-09-17T08:29:00.583Z,2.28
2022-09-17T08:31:30.419Z,1.88
2022-09-17T08:33:59.833Z,1.85
2022-09-17T08:36:28.162Z,1.67
2022-09-17T08:38:56.053Z,2.00
2022-09-17T08:41:27.504Z,1.70
2022-09-17T08:44:02.992Z,2.00
2022-09-17T08:46:32.905Z,1.92
2022-09-17T08:51:39.357Z,1.98
2022-09-17T08:54:08.706Z,2.05
2022-09-17T08:56:37.246Z,1.88
2022-09-17T08:59:21.456Z,1.88
2022-09-17T09:01:53.176Z,2.10
2022-09-17T09:04:32.993Z,1.88
2022-09-17T09:07:01.927Z,1.58
2022-09-17T09:09:31.262Z,2.03
2022-09-17T09:12:02.509Z,1.70
2022-09-17T09:14:32.409Z,1.60
2022-09-17T09:17:00.124Z,1.88
2022-09-17T09:19:30.933Z,1.88
2022-09-17T09:22:03.452Z,1.70
2022-09-17T09:24:36.816Z,1.80
2022-09-17T09:27:06.946Z,1.63
2022-09-17T09:32:16.290Z,1.90
2022-09-17T09:37:15.545Z,1.95
2022-09-17T09:39:46.008Z,2.10
2022-09-17T09:42:17.592Z,2.10
2022-09-17T09:44:45.312Z,1.73
2022-09-17T09:47:19.251Z,1.77
2022-09-17T09:50:06.596Z,1.90
2022-09-17T09:52:44.008Z,2.13
2022-09-17T09:55:26.416Z,1.48
2022-09-17T09:57:56.630Z,1.75
2022-09-17T10:00:26.994Z,1.70
2022-09-17T10:02:55.399Z,2.08
2022-09-17T10:05:24.715Z,2.03
2022-09-17T10:07:52.409Z,1.80
2022-09-17T10:10:20.202Z,1.90
2022-09-17T10:12:48.142Z,2.10
2022-09-17T10:15:26.303Z,2.00
2022-09-17T10:18:17.457Z,2.03
2022-09-17T10:20:59.654Z,1.90
2022-09-17T10:23:28.864Z,1.98
2022-09-17T10:25:56.796Z,1.93
2022-09-17T10:28:30.741Z,1.95
2022-09-17T10:30:59.209Z,1.85
2022-09-17T10:33:27.668Z,1.67
2022-09-17T10:35:57.000Z,1.75
2022-09-17T10:38:30.650Z,1.83
2022-09-17T10:41:18.194Z,1.70
2022-09-17T10:43:46.231Z,1.83
2022-09-17T10:46:16.753Z,1.83
2022-09-17T10:48:46.519Z,1.92
2022-09-17T10:51:21.936Z,1.67
2022-09-17T10:54:17.950Z,1.70
2022-09-17T10:56:46.967Z,1.67
2022-09-17T10:59:32.684Z,1.70
2022-09-17T11:02:04.091Z,1.63
2022-09-17T11:04:37.515Z,1.48
2022-09-17T11:07:20.968Z,1.20
2022-09-17T11:09:54.741Z,1.75
2022-09-17T11:12:29.787Z,1.80
2022-09-17T11:15:00.749Z,1.90
2022-09-17T11:18:00.940Z,1.80
2022-09-17T11:23:05.750Z,1.60
2022-09-17T11:25:43.073Z,1.65
2022-09-17T11:28:24.779Z,1.30
2022-09-17T11:30:57.787Z,1.60
2022-09-17T11:33:31.586Z,1.98
2022-09-17T11:36:01.107Z,1.73
2022-09-17T11:38:30.839Z,1.63
2022-09-17T11:41:02.066Z,1.30
2022-09-17T11:43:30.707Z,1.38
2022-09-17T11:46:01.677Z,1.27
2022-09-17T11:48:35.071Z,1.30
2022-09-17T11:51:05.049Z,1.88
2022-09-17T11:53:33.638Z,1.58
2022-09-17T11:56:04.632Z,1.50
2022-09-17T11:58:45.478Z,1.17
2022-09-17T12:01:15.070Z,1.50
2022-09-17T12:03:44.339Z,1.40
2022-09-17T12:06:15.131Z,1.30
2022-09-17T12:08:45.500Z,1.48
2022-09-17T12:11:16.899Z,1.50
2022-09-17T12:13:46.937Z,1.35
2022-09-17T12:16:17.092Z,1.33
2022-09-17T12:19:06.164Z,1.23
2022-09-17T12:21:36.796Z,1.40
2022-09-17T12:24:08.656Z,1.08
2022-09-17T12:26:50.328Z,1.30
2022-09-17T12:29:28.123Z,1.48
2022-09-17T12:31:58.038Z,1.30
2022-09-17T12:34:29.626Z,1.30
2022-09-17T12:37:01.470Z,1.02
2022-09-17T12:39:39.079Z,1.25
2022-09-17T12:42:13.803Z,0.90
2022-09-17T12:44:50.247Z,1.30
2022-09-17T12:47:32.374Z,1.20
2022-09-17T12:50:07.442Z,1.20
2022-09-17T12:52:41.304Z,0.80
2022-09-17T12:55:24.734Z,1.30
2022-09-17T12:57:57.741Z,1.10
2022-09-17T13:00:25.494Z,1.17
2022-09-17T13:02:58.677Z,1.10
2022-09-17T13:06:03.723Z,1.20
2022-09-17T13:09:07.332Z,0.90
2022-09-17T13:11:57.718Z,1.33
2022-09-17T13:14:30.236Z,0.95
2022-09-17T13:16:59.587Z,1.10
2022-09-17T13:19:32.182Z,1.10
2022-09-17T13:22:01.679Z,1.08
2022-09-17T13:24:31.277Z,1.30
2022-09-17T13:27:00.069Z,1.05
2022-09-17T13:30:00.792Z,1.02
2022-09-17T13:37:19.332Z,1.10
2022-09-17T13:39:47.444Z,1.00
2022-09-17T13:42:19.907Z,1.10
2022-09-17T13:44:49.982Z,1.00
2022-09-17T13:49:53.589Z,1.35
2022-09-17T13:52:39.149Z,1.30
2022-09-17T13:55:07.840Z,1.10
2022-09-17T13:57:45.311Z,1.20
2022-09-17T14:00:48.744Z,1.27
2022-09-17T14:03:52.507Z,1.10
2022-09-17T14:06:48.515Z,1.08
2022-09-17T14:09:39.203Z,1.15
2022-09-17T14:12:40.526Z,1.35
2022-09-17T14:15:32.905Z,1.42
2022-09-17T14:18:02.639Z,1.38
2022-09-17T14:20:34.456Z,1.40
2022-09-17T14:23:02.578Z,1.20
2022-09-17T14:25:33.716Z,1.30
2022-09-17T14:28:03.363Z,1.30
2022-09-17T14:30:31.311Z,1.60
2022-09-17T14:33:04.012Z,1.38
2022-09-17T14:35:36.571Z,1.45
2022-09-17T14:38:06.315Z,1.50
2022-09-17T14:40:34.238Z,1.38
2022-09-17T14:43:02.035Z,1.50
2022-09-17T14:45:30.803Z,1.20
2022-09-17T14:48:29.860Z,1.20
2022-09-17T14:51:25.005Z,1.20
2022-09-17T14:54:10.166Z,1.30
2022-09-17T14:56:42.947Z,1.33
2022-09-17T14:59:11.420Z,1.30
2022-09-17T15:01:39.169Z,1.30
2022-09-17T15:04:21.676Z,1.38
2022-09-17T15:06:51.542Z,1.23
2022-09-17T15:11:48.051Z,0.90
2022-09-17T15:14:17.966Z,1.20
2022-09-17T15:16:48.911Z,1.25
2022-09-17T15:19:20.702Z,1.50
2022-09-17T15:21:50.255Z,1.20
2022-09-17T15:24:20.947Z,1.20
2022-09-17T15:26:49.691Z,1.45
2022-09-17T15:29:17.540Z,1.40
2022-09-17T15:31:45.259Z,1.17
2022-09-17T15:34:13.387Z,1.02
2022-09-17T15:36:41.088Z,1.52
2022-09-17T15:39:30.867Z,0.90
2022-09-17T15:41:58.591Z,1.08
2022-09-17T15:44:30.186Z,1.17
2022-09-17T15:47:32.047Z,1.23
2022-09-17T15:50:14.848Z,1.10
2022-09-17T15:52:42.548Z,1.27
2022-09-17T15:55:30.359Z,1.42
2022-09-17T15:57:58.794Z,1.27
2022-09-17T16:00:26.582Z,1.10
2022-09-17T16:02:54.317Z,1.25
2022-09-17T16:05:51.770Z,1.20
2022-09-17T16:08:25.089Z,1.20
2022-09-17T16:10:54.178Z,1.25
2022-09-17T16:13:26.472Z,1.05
2022-09-17T16:15:56.482Z,1.20
2022-09-17T16:18:24.314Z,1.50
2022-09-17T16:20:52.046Z,1.10
2022-09-17T16:23:19.753Z,1.60
2022-09-17T16:25:47.477Z,1.10
2022-09-17T16:28:17.691Z,1.40
2022-09-17T16:30:46.278Z,1.30
2022-09-17T16:33:14.383Z,1.63
2022-09-17T16:35:42.212Z,1.35
2022-09-17T16:38:10.442Z,1.30
2022-09-17T16:40:41.454Z,1.13
2022-09-17T16:43:09.691Z,1.20
2022-09-17T16:45:38.721Z,1.15
2022-09-17T16:48:06.727Z,1.20
2022-09-17T16:50:34.548Z,1.00
2022-09-17T16:53:05.341Z,1.20
2022-09-17T16:55:33.238Z,1.23
2022-09-17T16:58:00.926Z,1.27
2022-09-17T17:00:29.130Z,1.30
2022-09-17T17:02:58.598Z,1.15
2022-09-17T17:05:26.933Z,1.00
2022-09-17T17:07:55.260Z,1.30
2022-09-17T17:10:23.006Z,1.13
2022-09-17T17:12:50.709Z,1.17
2022-09-17T17:15:18.914Z,1.08
2022-09-17T17:17:46.641Z,1.35
2022-09-17T17:20:16.868Z,1.23
2022-09-17T17:22:44.581Z,1.48
2022-09-17T17:25:12.928Z,1.55
2022-09-17T17:27:41.128Z,1.17
2022-09-17T17:30:10.288Z,1.30
2022-09-17T17:32:38.154Z,1.17
2022-09-17T17:35:07.030Z,1.25
2022-09-17T17:37:36.092Z,1.17
2022-09-17T17:40:07.706Z,1.20
2022-09-17T17:42:38.159Z,1.30
2022-09-17T17:45:06.709Z,1.30
2022-09-17T17:47:34.429Z,1.40
2022-09-17T17:50:02.122Z,1.40
2022-09-17T17:52:30.036Z,1.10
2022-09-17T17:54:59.066Z,1.40
2022-09-17T17:57:26.733Z,1.63
2022-09-17T17:59:54.429Z,1.50
2022-09-17T18:02:22.223Z,1.67
2022-09-17T18:04:49.984Z,1.20
2022-09-17T18:07:17.645Z,1.55
2022-09-17T18:09:46.025Z,1.75
2022-09-17T18:12:15.039Z,1.25
2022-09-17T18:14:42.762Z,1.40
2022-09-17T18:17:10.417Z,1.50
2022-09-17T18:19:38.099Z,1.13
2022-09-17T18:22:05.846Z,1.30
2022-09-17T18:24:33.566Z,1.27
2022-09-17T18:27:01.236Z,1.48
2022-09-17T18:29:30.297Z,1.38
2022-09-17T18:31:57.988Z,1.40
2022-09-17T18:34:25.669Z,1.45
2022-09-17T18:36:53.348Z,1.38
2022-09-17T18:39:57.061Z,1.42
2022-09-17T18:42:09.186Z,1.35
2022-09-17T18:44:38.258Z,1.52
2022-09-17T18:47:06.157Z,1.17
2022-09-17T18:49:33.827Z,1.33
2022-09-17T18:52:01.482Z,1.17
2022-09-17T18:54:29.180Z,1.27
2022-09-17T18:56:56.848Z,1.30
2022-09-17T18:59:24.584Z,1.23
2022-09-17T19:01:55.935Z,1.63
2022-09-17T19:04:23.670Z,1.60
2022-09-17T19:06:51.366Z,1.77
2022-09-17T19:09:19.062Z,1.35
2022-09-17T19:11:46.719Z,1.30
2022-09-17T19:14:14.456Z,1.52
2022-09-17T19:16:42.113Z,1.50
2022-09-17T19:19:11.506Z,1.65
2022-09-17T19:21:39.214Z,1.50
2022-09-17T19:24:07.183Z,1.75
2022-09-17T19:26:34.856Z,1.60
2022-09-17T19:29:02.536Z,1.58
2022-09-17T19:31:30.413Z,1.40
2022-09-17T19:33:59.714Z,1.98
2022-09-17T19:36:28.819Z,1.50
2022-09-17T19:38:58.881Z,1.48
2022-09-17T19:43:54.492Z,1.77
2022-09-17T19:46:24.108Z,1.48
2022-09-17T19:48:52.718Z,1.55
2022-09-17T19:51:20.511Z,1.52
2022-09-17T19:53:49.549Z,1.27
2022-09-17T19:56:18.436Z,1.48
2022-09-17T19:58:46.118Z,1.40
2022-09-17T20:01:13.910Z,1.55
2022-09-17T20:03:41.900Z,1.70
2022-09-17T20:06:10.677Z,1.40
2022-09-17T20:08:43.542Z,1.70
2022-09-17T20:11:15.177Z,1.52
2022-09-17T20:13:42.874Z,1.40
2022-09-17T20:16:11.368Z,1.35
2022-09-17T20:18:39.141Z,1.80
2022-09-17T20:21:10.450Z,1.42
2022-09-17T20:23:38.128Z,1.52
2022-09-17T20:26:06.263Z,1.70
2022-09-17T20:28:35.292Z,1.50
2022-09-17T20:31:03.835Z,1.38
2022-09-17T20:33:31.611Z,1.60
2022-09-17T20:36:00.160Z,1.63
2022-09-17T20:41:15.727Z,1.60
2022-09-17T20:43:45.721Z,1.58
2022-09-17T20:46:13.543Z,1.67
2022-09-17T20:48:41.259Z,1.63
2022-09-17T20:51:10.254Z,1.40
2022-09-17T20:53:38.216Z,1.50
2022-09-17T20:56:07.004Z,1.30
2022-09-17T20:58:35.430Z,1.42
2022-09-17T21:01:08.410Z,1.65
2022-09-17T21:03:37.508Z,1.48
2022-09-17T21:06:05.693Z,1.38
2022-09-17T21:08:33.635Z,1.67
2022-09-17T21:11:04.480Z,1.52
2022-09-17T21:13:32.131Z,1.70
2022-09-17T21:16:00.262Z,1.58
2022-09-17T21:18:29.662Z,1.45
2022-09-17T21:20:57.371Z,1.23
2022-09-17T21:23:25.377Z,1.40
2022-09-17T21:25:53.138Z,1.50
2022-09-17T21:28:21.826Z,1.45
2022-09-17T21:30:49.522Z,1.40
2022-09-17T21:33:22.095Z,1.38
2022-09-17T21:35:51.770Z,1.50
2022-09-17T21:38:20.327Z,1.55
2022-09-17T21:40:56.294Z,1.30
2022-09-17T21:43:24.126Z,1.23
2022-09-17T21:45:59.577Z,1.55
2022-09-17T21:48:27.298Z,1.30
2022-09-17T21:51:02.422Z,1.33
2022-09-17T21:53:30.471Z,1.30
2022-09-17T21:55:58.158Z,1.10
2022-09-17T21:58:25.830Z,1.42
2022-09-17T22:00:53.515Z,1.20
2022-09-17T22:03:21.190Z,1.30
2022-09-17T22:05:48.886Z,1.52
2022-09-17T22:08:17.909Z,1.20
2022-09-17T22:10:45.597Z,1.50
2022-09-17T22:13:13.247Z,1.20
2022-09-17T22:15:40.972Z,1.20
2022-09-17T22:18:12.882Z,1.30
2022-09-17T22:20:40.960Z,1.33
2022-09-17T22:23:08.639Z,1.27
2022-09-17T22:25:37.672Z,1.40
2022-09-17T22:28:20.611Z,1.48
2022-09-17T22:30:49.400Z,1.17
2022-09-17T22:33:17.152Z,1.20
2022-09-17T22:35:44.856Z,1.30
2022-09-17T22:38:12.526Z,1.40
2022-09-17T22:40:41.544Z,1.20
2022-09-17T22:43:09.216Z,1.30
2022-09-17T22:45:36.905Z,1.38
2022-09-17T22:48:05.511Z,1.20
2022-09-17T22:50:33.215Z,1.13
2022-09-17T22:53:00.898Z,1.55
2022-09-17T22:55:28.603Z,1.05
2022-09-17T22:57:57.615Z,1.13
2022-09-17T23:00:25.677Z,1.45
2022-09-17T23:02:53.428Z,1.33
2022-09-17T23:05:21.237Z,1.20
2022-09-17T23:07:48.903Z,1.48
2022-09-17T23:10:16.656Z,1.38
2022-09-17T23:12:44.350Z,1.05
2022-09-17T23:15:14.866Z,1.10
2022-09-17T23:17:43.615Z,1.20
2022-09-17T23:20:12.270Z,1.20
2022-09-17T23:22:39.947Z,1.45
2022-09-17T23:25:08.136Z,1.30
2022-09-17T23:27:35.956Z,1.33
2022-09-17T23:30:03.723Z,1.20
2022-09-17T23:32:32.892Z,1.40
2022-09-17T23:35:00.601Z,1.17
2022-09-17T23:37:28.752Z,1.08
2022-09-17T23:39:56.615Z,1.10
2022-09-17T23:42:24.427Z,1.30
2022-09-17T23:44:52.115Z,1.50
2022-09-17T23:47:19.782Z,1.30
2022-09-17T23:49:50.036Z,1.38
2022-09-17T23:52:17.734Z,1.50
2022-09-17T23:54:45.458Z,1.30
2022-09-17T23:57:13.111Z,1.40
2022-09-17T23:59:40.914Z,1.40
